sensor_id;sensor_type;location;lat;lon;timestamp;pressure;altitude;pressure_sealevel;temperature;humidity
77062;BME280;65989;51.686;5.138;2024-01-30T00:02:09;102713.94;;;6.26;100.00
77062;BME280;65989;51.686;5.138;2024-01-30T00:04:35;102706.59;;;6.22;100.00
77062;BME280;65989;51.686;5.138;2024-01-30T00:07:00;102694.78;;;6.18;100.00
77062;BME280;65989;51.686;5.138;2024-01-30T00:09:25;102698.41;;;6.17;100.00
77062;BME280;65989;51.686;5.138;2024-01-30T00:11:51;102698.41;;;6.17;100.00
77062;BME280;65989;51.686;5.138;2024-01-30T00:14:16;102691.66;;;6.14;100.00
77062;BME280;65989;51.686;5.138;2024-01-30T00:16:41;102687.75;;;6.10;100.00
77062;BME280;65989;51.686;5.138;2024-01-30T00:19:07;102688.91;;;6.07;100.00
77062;BME280;65989;51.686;5.138;2024-01-30T00:21:33;102691.25;;;6.02;100.00
77062;BME280;65989;51.686;5.138;2024-01-30T00:23:58;102680.09;;;6.00;100.00
77062;BME280;65989;51.686;5.138;2024-01-30T00:26:24;102682.03;;;5.98;100.00
77062;BME280;65989;51.686;5.138;2024-01-30T00:28:49;102684.34;;;6.01;100.00
77062;BME280;65989;51.686;5.138;2024-01-30T00:31:15;102678.41;;;5.99;100.00
77062;BME280;65989;51.686;5.138;2024-01-30T00:33:41;102674.00;;;6.00;100.00
77062;BME280;65989;51.686;5.138;2024-01-30T00:36:07;102677.44;;;6.00;100.00
77062;BME280;65989;51.686;5.138;2024-01-30T00:38:33;102676.47;;;6.01;100.00
77062;BME280;65989;51.686;5.138;2024-01-30T00:40:58;102666.56;;;6.03;100.00
77062;BME280;65989;51.686;5.138;2024-01-30T00:43:24;102673.66;;;6.03;100.00
77062;BME280;65989;51.686;5.138;2024-01-30T00:45:53;102666.94;;;6.00;100.00
77062;BME280;65989;51.686;5.138;2024-01-30T00:48:18;102672.19;;;6.00;100.00
77062;BME280;65989;51.686;5.138;2024-01-30T00:50:44;102675.78;;;5.99;100.00
77062;BME280;65989;51.686;5.138;2024-01-30T00:53:09;102672.69;;;5.95;100.00
77062;BME280;65989;51.686;5.138;2024-01-30T00:55:35;102667.44;;;5.95;100.00
77062;BME280;65989;51.686;5.138;2024-01-30T00:58:00;102675.16;;;5.97;100.00
77062;BME280;65989;51.686;5.138;2024-01-30T01:00:26;102675.16;;;5.97;100.00
77062;BME280;65989;51.686;5.138;2024-01-30T01:02:55;102671.72;;;5.96;100.00
77062;BME280;65989;51.686;5.138;2024-01-30T01:05:20;102666.97;;;5.92;100.00
77062;BME280;65989;51.686;5.138;2024-01-30T01:07:45;102676.50;;;5.93;100.00
77062;BME280;65989;51.686;5.138;2024-01-30T01:10:12;102670.59;;;5.91;100.00
77062;BME280;65989;51.686;5.138;2024-01-30T01:12:39;102667.34;;;5.89;100.00
77062;BME280;65989;51.686;5.138;2024-01-30T01:15:05;102663.88;;;5.88;100.00
77062;BME280;65989;51.686;5.138;2024-01-30T01:17:31;102661.44;;;5.87;100.00
77062;BME280;65989;51.686;5.138;2024-01-30T01:19:57;102658.78;;;5.87;100.00
77062;BME280;65989;51.686;5.138;2024-01-30T01:22:22;102658.78;;;5.87;100.00
77062;BME280;65989;51.686;5.138;2024-01-30T01:24:48;102661.72;;;5.92;100.00
77062;BME280;65989;51.686;5.138;2024-01-30T01:27:13;102657.25;;;5.92;100.00
77062;BME280;65989;51.686;5.138;2024-01-30T01:29:39;102658.56;;;5.96;100.00
77062;BME280;65989;51.686;5.138;2024-01-30T01:32:04;102656.41;;;6.00;100.00
77062;BME280;65989;51.686;5.138;2024-01-30T01:34:30;102646.53;;;6.02;100.00
77062;BME280;65989;51.686;5.138;2024-01-30T01:36:55;102651.44;;;6.05;100.00
77062;BME280;65989;51.686;5.138;2024-01-30T01:39:22;102647.28;;;6.11;100.00
77062;BME280;65989;51.686;5.138;2024-01-30T01:41:48;102654.63;;;6.16;100.00
77062;BME280;65989;51.686;5.138;2024-01-30T01:44:14;102638.31;;;6.20;100.00
77062;BME280;65989;51.686;5.138;2024-01-30T01:46:39;102635.31;;;6.23;100.00
77062;BME280;65989;51.686;5.138;2024-01-30T01:49:05;102638.44;;;6.27;100.00
77062;BME280;65989;51.686;5.138;2024-01-30T01:51:34;102633.59;;;6.31;100.00
77062;BME280;65989;51.686;5.138;2024-01-30T01:54:03;102631.97;;;6.30;100.00
77062;BME280;65989;51.686;5.138;2024-01-30T01:56:30;102637.03;;;6.31;100.00
77062;BME280;65989;51.686;5.138;2024-01-30T01:58:59;102633.59;;;6.31;100.00
77062;BME280;65989;51.686;5.138;2024-01-30T02:01:25;102630.13;;;6.30;100.00
77062;BME280;65989;51.686;5.138;2024-01-30T02:03:52;102624.44;;;6.26;100.00
77062;BME280;65989;51.686;5.138;2024-01-30T02:06:18;102624.63;;;6.25;100.00
77062;BME280;65989;51.686;5.138;2024-01-30T02:08:44;102624.50;;;6.18;100.00
77062;BME280;65989;51.686;5.138;2024-01-30T02:11:10;102634.38;;;6.16;100.00
77062;BME280;65989;51.686;5.138;2024-01-30T02:13:36;102632.94;;;6.13;100.00
77062;BME280;65989;51.686;5.138;2024-01-30T02:16:02;102631.66;;;6.09;100.00
77062;BME280;65989;51.686;5.138;2024-01-30T02:18:27;102632.84;;;6.07;100.00
77062;BME280;65989;51.686;5.138;2024-01-30T02:20:54;102639.63;;;6.01;100.00
77062;BME280;65989;51.686;5.138;2024-01-30T02:23:23;102631.25;;;5.97;100.00
77062;BME280;65989;51.686;5.138;2024-01-30T02:25:49;102637.03;;;5.93;100.00
77062;BME280;65989;51.686;5.138;2024-01-30T02:28:15;102639.84;;;5.91;100.00
77062;BME280;65989;51.686;5.138;2024-01-30T02:30:43;102632.94;;;5.90;100.00
77062;BME280;65989;51.686;5.138;2024-01-30T02:33:08;102621.63;;;5.90;100.00
77062;BME280;65989;51.686;5.138;2024-01-30T02:35:34;102624.06;;;5.91;100.00
77062;BME280;65989;51.686;5.138;2024-01-30T02:37:59;102619.28;;;5.95;100.00
77062;BME280;65989;51.686;5.138;2024-01-30T02:40:25;102621.53;;;5.98;100.00
77062;BME280;65989;51.686;5.138;2024-01-30T02:42:50;102616.78;;;6.02;100.00
77062;BME280;65989;51.686;5.138;2024-01-30T02:45:16;102607.69;;;6.04;100.00
77062;BME280;65989;51.686;5.138;2024-01-30T02:47:41;102609.81;;;6.09;100.00
77062;BME280;65989;51.686;5.138;2024-01-30T02:50:07;102599.91;;;6.11;100.00
77062;BME280;65989;51.686;5.138;2024-01-30T02:52:33;102605.63;;;6.15;100.00
77062;BME280;65989;51.686;5.138;2024-01-30T02:54:58;102600.81;;;6.18;100.00
77062;BME280;65989;51.686;5.138;2024-01-30T02:57:24;102601.72;;;6.25;100.00
77062;BME280;65989;51.686;5.138;2024-01-30T02:59:49;102595.56;;;6.33;100.00
77062;BME280;65989;51.686;5.138;2024-01-30T03:02:15;102598.47;;;6.38;100.00
77062;BME280;65989;51.686;5.138;2024-01-30T03:04:41;102589.22;;;6.42;100.00
77062;BME280;65989;51.686;5.138;2024-01-30T03:07:06;102585.84;;;6.49;100.00
77062;BME280;65989;51.686;5.138;2024-01-30T03:09:32;102586.13;;;6.54;100.00
77062;BME280;65989;51.686;5.138;2024-01-30T03:11:57;102595.47;;;6.56;100.00
77062;BME280;65989;51.686;5.138;2024-01-30T03:14:22;102603.66;;;6.62;100.00
77062;BME280;65989;51.686;5.138;2024-01-30T03:16:48;102598.19;;;6.63;100.00
77062;BME280;65989;51.686;5.138;2024-01-30T03:19:13;102583.00;;;6.65;100.00
77062;BME280;65989;51.686;5.138;2024-01-30T03:21:38;102596.66;;;6.69;100.00
77062;BME280;65989;51.686;5.138;2024-01-30T03:24:04;102597.28;;;6.71;100.00
77062;BME280;65989;51.686;5.138;2024-01-30T03:26:30;102598.72;;;6.73;100.00
77062;BME280;65989;51.686;5.138;2024-01-30T03:28:55;102593.09;;;6.77;100.00
77062;BME280;65989;51.686;5.138;2024-01-30T03:31:20;102603.06;;;6.81;100.00
77062;BME280;65989;51.686;5.138;2024-01-30T03:33:46;102599.44;;;6.82;100.00
77062;BME280;65989;51.686;5.138;2024-01-30T03:36:11;102595.63;;;6.85;100.00
77062;BME280;65989;51.686;5.138;2024-01-30T03:38:37;102595.44;;;6.86;100.00
77062;BME280;65989;51.686;5.138;2024-01-30T03:41:02;102597.53;;;6.91;100.00
77062;BME280;65989;51.686;5.138;2024-01-30T03:43:27;102593.28;;;6.90;100.00
77062;BME280;65989;51.686;5.138;2024-01-30T03:45:53;102593.53;;;6.95;100.00
77062;BME280;65989;51.686;5.138;2024-01-30T03:48:19;102598.41;;;6.98;100.00
77062;BME280;65989;51.686;5.138;2024-01-30T03:50:45;102595.59;;;7.00;100.00
77062;BME280;65989;51.686;5.138;2024-01-30T03:53:10;102595.25;;;7.03;100.00
77062;BME280;65989;51.686;5.138;2024-01-30T03:55:36;102594.41;;;7.02;100.00
77062;BME280;65989;51.686;5.138;2024-01-30T03:58:01;102587.13;;;7.05;100.00
77062;BME280;65989;51.686;5.138;2024-01-30T04:00:26;102590.41;;;7.07;100.00
77062;BME280;65989;51.686;5.138;2024-01-30T04:02:52;102592.03;;;7.08;100.00
77062;BME280;65989;51.686;5.138;2024-01-30T04:05:17;102583.13;;;7.09;100.00
77062;BME280;65989;51.686;5.138;2024-01-30T04:07:42;102587.22;;;7.11;100.00
77062;BME280;65989;51.686;5.138;2024-01-30T04:10:09;102578.47;;;7.11;100.00
77062;BME280;65989;51.686;5.138;2024-01-30T04:12:36;102578.09;;;7.14;100.00
77062;BME280;65989;51.686;5.138;2024-01-30T04:15:01;102577.75;;;7.17;100.00
77062;BME280;65989;51.686;5.138;2024-01-30T04:17:27;102568.00;;;7.17;100.00
77062;BME280;65989;51.686;5.138;2024-01-30T04:19:54;102573.34;;;7.24;100.00
77062;BME280;65989;51.686;5.138;2024-01-30T04:22:19;102578.44;;;7.26;100.00
77062;BME280;65989;51.686;5.138;2024-01-30T04:24:45;102580.06;;;7.27;100.00
77062;BME280;65989;51.686;5.138;2024-01-30T04:27:10;102597.94;;;7.31;100.00
77062;BME280;65989;51.686;5.138;2024-01-30T04:29:37;102590.88;;;7.32;100.00
77062;BME280;65989;51.686;5.138;2024-01-30T04:32:02;102592.31;;;7.35;100.00
77062;BME280;65989;51.686;5.138;2024-01-30T04:34:28;102587.66;;;7.37;100.00
77062;BME280;65989;51.686;5.138;2024-01-30T04:36:53;102583.00;;;7.39;100.00
77062;BME280;65989;51.686;5.138;2024-01-30T04:39:18;102579.38;;;7.40;100.00
77062;BME280;65989;51.686;5.138;2024-01-30T04:41:44;102591.56;;;7.41;100.00
77062;BME280;65989;51.686;5.138;2024-01-30T04:44:09;102579.00;;;7.43;100.00
77062;BME280;65989;51.686;5.138;2024-01-30T04:46:35;102579.19;;;7.41;100.00
77062;BME280;65989;51.686;5.138;2024-01-30T04:49:00;102579.00;;;7.43;100.00
77062;BME280;65989;51.686;5.138;2024-01-30T04:51:25;102576.00;;;7.46;100.00
77062;BME280;65989;51.686;5.138;2024-01-30T04:53:51;102571.72;;;7.45;100.00
77062;BME280;65989;51.686;5.138;2024-01-30T04:56:16;102567.06;;;7.47;100.00
77062;BME280;65989;51.686;5.138;2024-01-30T04:58:42;102568.50;;;7.50;100.00
77062;BME280;65989;51.686;5.138;2024-01-30T05:01:07;102559.41;;;7.52;100.00
77062;BME280;65989;51.686;5.138;2024-01-30T05:03:33;102557.41;;;7.54;100.00
77062;BME280;65989;51.686;5.138;2024-01-30T05:05:59;102561.47;;;7.57;100.00
77062;BME280;65989;51.686;5.138;2024-01-30T05:08:25;102558.28;;;7.61;100.00
77062;BME280;65989;51.686;5.138;2024-01-30T05:10:50;102562.13;;;7.66;100.00
77062;BME280;65989;51.686;5.138;2024-01-30T05:13:15;102567.03;;;7.69;100.00
77062;BME280;65989;51.686;5.138;2024-01-30T05:15:41;102564.22;;;7.70;100.00
77062;BME280;65989;51.686;5.138;2024-01-30T05:18:06;102557.34;;;7.76;100.00
77062;BME280;65989;51.686;5.138;2024-01-30T05:20:31;102552.72;;;7.78;100.00
77062;BME280;65989;51.686;5.138;2024-01-30T05:22:57;102558.63;;;7.80;100.00
77062;BME280;65989;51.686;5.138;2024-01-30T05:25:22;102557.59;;;7.81;100.00
77062;BME280;65989;51.686;5.138;2024-01-30T05:27:48;102556.84;;;7.87;100.00
77062;BME280;65989;51.686;5.138;2024-01-30T05:30:14;102549.34;;;7.91;100.00
77062;BME280;65989;51.686;5.138;2024-01-30T05:32:40;102552.81;;;7.91;100.00
77062;BME280;65989;51.686;5.138;2024-01-30T05:35:05;102557.09;;;7.92;100.00
77062;BME280;65989;51.686;5.138;2024-01-30T05:37:33;102544.69;;;7.93;100.00
77062;BME280;65989;51.686;5.138;2024-01-30T05:39:58;102552.22;;;7.96;100.00
77062;BME280;65989;51.686;5.138;2024-01-30T05:42:24;102561.41;;;8.00;100.00
77062;BME280;65989;51.686;5.138;2024-01-30T05:44:50;102556.75;;;8.02;100.00
77062;BME280;65989;51.686;5.138;2024-01-30T05:47:15;102552.25;;;8.03;100.00
77062;BME280;65989;51.686;5.138;2024-01-30T05:49:41;102552.25;;;8.03;100.00
77062;BME280;65989;51.686;5.138;2024-01-30T05:52:07;102562.44;;;8.06;100.00
77062;BME280;65989;51.686;5.138;2024-01-30T05:54:32;102566.09;;;8.05;100.00
77062;BME280;65989;51.686;5.138;2024-01-30T05:56:58;102563.66;;;8.03;100.00
77062;BME280;65989;51.686;5.138;2024-01-30T05:59:23;102565.09;;;8.06;100.00
77062;BME280;65989;51.686;5.138;2024-01-30T06:01:48;102571.00;;;8.08;100.00
77062;BME280;65989;51.686;5.138;2024-01-30T06:04:14;102566.53;;;8.09;100.00
77062;BME280;65989;51.686;5.138;2024-01-30T06:06:40;102575.25;;;8.09;100.00
77062;BME280;65989;51.686;5.138;2024-01-30T06:09:05;102579.53;;;8.10;100.00
77062;BME280;65989;51.686;5.138;2024-01-30T06:11:31;102580.16;;;8.12;100.00
77062;BME280;65989;51.686;5.138;2024-01-30T06:13:56;102580.97;;;8.13;100.00
77062;BME280;65989;51.686;5.138;2024-01-30T06:16:22;102574.88;;;8.12;100.00
77062;BME280;65989;51.686;5.138;2024-01-30T06:18:48;102574.88;;;8.12;100.00
77062;BME280;65989;51.686;5.138;2024-01-30T06:21:13;102579.94;;;8.14;100.00
77062;BME280;65989;51.686;5.138;2024-01-30T06:23:39;102575.28;;;8.16;100.00
77062;BME280;65989;51.686;5.138;2024-01-30T06:26:06;102582.03;;;8.18;100.00
77062;BME280;65989;51.686;5.138;2024-01-30T06:28:31;102563.16;;;8.21;100.00
77062;BME280;65989;51.686;5.138;2024-01-30T06:30:57;102574.97;;;8.26;100.00
77062;BME280;65989;51.686;5.138;2024-01-30T06:33:22;102573.53;;;8.30;100.00
77062;BME280;65989;51.686;5.138;2024-01-30T06:35:48;102575.19;;;8.31;100.00
77062;BME280;65989;51.686;5.138;2024-01-30T06:38:13;102581.09;;;8.33;100.00
77062;BME280;65989;51.686;5.138;2024-01-30T06:40:41;102600.41;;;8.33;100.00
77062;BME280;65989;51.686;5.138;2024-01-30T06:43:07;102580.91;;;8.34;100.00
77062;BME280;65989;51.686;5.138;2024-01-30T06:45:33;102589.88;;;8.40;100.00
77062;BME280;65989;51.686;5.138;2024-01-30T06:48:00;102604.91;;;8.40;100.00
77062;BME280;65989;51.686;5.138;2024-01-30T06:50:25;102590.31;;;8.44;100.00
77062;BME280;65989;51.686;5.138;2024-01-30T06:52:51;102598.03;;;8.45;100.00
77062;BME280;65989;51.686;5.138;2024-01-30T06:55:17;102597.66;;;8.48;100.00
77062;BME280;65989;51.686;5.138;2024-01-30T06:57:43;102605.00;;;8.53;100.00
77062;BME280;65989;51.686;5.138;2024-01-30T07:00:09;102609.28;;;8.54;100.00
77062;BME280;65989;51.686;5.138;2024-01-30T07:02:34;102608.09;;;8.57;100.00
77062;BME280;65989;51.686;5.138;2024-01-30T07:05:00;102607.50;;;8.61;100.00
77062;BME280;65989;51.686;5.138;2024-01-30T07:07:25;102607.72;;;8.66;100.00
77062;BME280;65989;51.686;5.138;2024-01-30T07:09:51;102615.66;;;8.66;100.00
77062;BME280;65989;51.686;5.138;2024-01-30T07:12:22;102613.84;;;8.74;100.00
77062;BME280;65989;51.686;5.138;2024-01-30T07:14:47;102618.75;;;8.77;100.00
77062;BME280;65989;51.686;5.138;2024-01-30T07:17:13;102624.63;;;8.79;100.00
77062;BME280;65989;51.686;5.138;2024-01-30T07:19:39;102610.00;;;8.83;100.00
77062;BME280;65989;51.686;5.138;2024-01-30T07:22:04;102612.47;;;8.85;100.00
77062;BME280;65989;51.686;5.138;2024-01-30T07:24:29;102612.47;;;8.85;100.00
77062;BME280;65989;51.686;5.138;2024-01-30T07:26:55;102623.03;;;8.85;100.00
77062;BME280;65989;51.686;5.138;2024-01-30T07:29:20;102621.41;;;8.84;100.00
77062;BME280;65989;51.686;5.138;2024-01-30T07:31:47;102634.41;;;8.85;100.00
77062;BME280;65989;51.686;5.138;2024-01-30T07:34:12;102630.59;;;8.88;100.00
77062;BME280;65989;51.686;5.138;2024-01-30T07:36:37;102630.38;;;8.89;100.00
77062;BME280;65989;51.686;5.138;2024-01-30T07:39:03;102636.09;;;8.93;100.00
77062;BME280;65989;51.686;5.138;2024-01-30T07:41:31;102635.09;;;8.94;100.00
77062;BME280;65989;51.686;5.138;2024-01-30T07:43:57;102634.50;;;8.99;100.00
77062;BME280;65989;51.686;5.138;2024-01-30T07:46:22;102639.38;;;9.02;100.00
77062;BME280;65989;51.686;5.138;2024-01-30T07:48:47;102642.44;;;9.05;100.00
77062;BME280;65989;51.686;5.138;2024-01-30T07:51:13;102639.41;;;9.08;100.00
77062;BME280;65989;51.686;5.138;2024-01-30T07:53:39;102647.75;;;9.12;100.00
77062;BME280;65989;51.686;5.138;2024-01-30T07:56:05;102649.19;;;9.15;100.00
77062;BME280;65989;51.686;5.138;2024-01-30T07:58:30;102642.88;;;9.16;100.00
77062;BME280;65989;51.686;5.138;2024-01-30T08:00:56;102643.69;;;9.16;100.00
77062;BME280;65989;51.686;5.138;2024-01-30T08:03:23;102638.44;;;9.23;100.00
77062;BME280;65989;51.686;5.138;2024-01-30T08:05:49;102646.78;;;9.26;100.00
77062;BME280;65989;51.686;5.138;2024-01-30T08:08:14;102652.47;;;9.30;100.00
77062;BME280;65989;51.686;5.138;2024-01-30T08:10:40;102641.50;;;9.33;100.00
77062;BME280;65989;51.686;5.138;2024-01-30T08:13:05;102646.81;;;9.40;100.00
77062;BME280;65989;51.686;5.138;2024-01-30T08:15:31;102650.50;;;9.46;100.00
77062;BME280;65989;51.686;5.138;2024-01-30T08:17:56;102655.16;;;9.50;100.00
77062;BME280;65989;51.686;5.138;2024-01-30T08:20:24;102656.84;;;9.58;100.00
77062;BME280;65989;51.686;5.138;2024-01-30T08:22:49;102653.97;;;9.60;100.00
77062;BME280;65989;51.686;5.138;2024-01-30T08:25:15;102654.19;;;9.65;100.00
77062;BME280;65989;51.686;5.138;2024-01-30T08:27:40;102654.41;;;9.70;100.00
77062;BME280;65989;51.686;5.138;2024-01-30T08:30:06;102645.22;;;9.73;100.00
77062;BME280;65989;51.686;5.138;2024-01-30T08:32:32;102654.00;;;9.80;100.00
77062;BME280;65989;51.686;5.138;2024-01-30T08:34:57;102646.06;;;9.86;100.00
77062;BME280;65989;51.686;5.138;2024-01-30T08:37:23;102646.47;;;9.90;100.00
77062;BME280;65989;51.686;5.138;2024-01-30T08:39:48;102650.94;;;9.96;100.00
77062;BME280;65989;51.686;5.138;2024-01-30T08:42:14;102652.16;;;10.00;100.00
77062;BME280;65989;51.686;5.138;2024-01-30T08:44:39;102660.31;;;10.06;100.00
77062;BME280;65989;51.686;5.138;2024-01-30T08:47:05;102662.56;;;10.09;100.00
77062;BME280;65989;51.686;5.138;2024-01-30T08:49:30;102655.81;;;10.13;100.00
77062;BME280;65989;51.686;5.138;2024-01-30T08:51:56;102653.56;;;10.16;100.00
77062;BME280;65989;51.686;5.138;2024-01-30T08:54:22;102648.88;;;10.19;100.00
77062;BME280;65989;51.686;5.138;2024-01-30T08:56:48;102654.19;;;10.25;100.00
77062;BME280;65989;51.686;5.138;2024-01-30T08:59:13;102655.38;;;10.29;100.00
77062;BME280;65989;51.686;5.138;2024-01-30T09:01:39;102655.59;;;10.35;100.00
77062;BME280;65989;51.686;5.138;2024-01-30T09:04:04;102658.28;;;10.41;100.00
77062;BME280;65989;51.686;5.138;2024-01-30T09:06:29;102656.41;;;10.49;100.00
77062;BME280;65989;51.686;5.138;2024-01-30T09:08:55;102670.88;;;10.53;100.00
77062;BME280;65989;51.686;5.138;2024-01-30T09:11:20;102664.56;;;10.54;99.76
77062;BME280;65989;51.686;5.138;2024-01-30T09:13:45;102669.84;;;10.60;99.78
77062;BME280;65989;51.686;5.138;2024-01-30T09:16:11;102674.72;;;10.64;99.42
77062;BME280;65989;51.686;5.138;2024-01-30T09:18:36;102681.47;;;10.66;99.26
77062;BME280;65989;51.686;5.138;2024-01-30T09:21:02;102683.50;;;10.64;99.01
77062;BME280;65989;51.686;5.138;2024-01-30T09:23:27;102683.28;;;10.66;98.87
77062;BME280;65989;51.686;5.138;2024-01-30T09:25:53;102692.88;;;10.67;98.63
77062;BME280;65989;51.686;5.138;2024-01-30T09:28:19;102681.66;;;10.65;98.54
77062;BME280;65989;51.686;5.138;2024-01-30T09:30:45;102683.09;;;10.60;98.63
77062;BME280;65989;51.686;5.138;2024-01-30T09:33:10;102682.69;;;10.57;98.70
77062;BME280;65989;51.686;5.138;2024-01-30T09:35:36;102680.28;;;10.55;98.68
77062;BME280;65989;51.686;5.138;2024-01-30T09:38:02;102679.25;;;10.56;98.81
77062;BME280;65989;51.686;5.138;2024-01-30T09:40:27;102681.69;;;10.58;98.91
77062;BME280;65989;51.686;5.138;2024-01-30T09:42:53;102680.66;;;10.59;98.81
77062;BME280;65989;51.686;5.138;2024-01-30T09:45:19;102690.25;;;10.60;98.79
77062;BME280;65989;51.686;5.138;2024-01-30T09:47:45;102686.34;;;10.63;98.83
77062;BME280;65989;51.686;5.138;2024-01-30T09:50:12;102698.38;;;10.65;98.76
77062;BME280;65989;51.686;5.138;2024-01-30T09:52:39;102695.94;;;10.64;98.45
77062;BME280;65989;51.686;5.138;2024-01-30T09:55:05;102698.59;;;10.64;98.53
77062;BME280;65989;51.686;5.138;2024-01-30T09:57:31;102700.63;;;10.68;98.53
77062;BME280;65989;51.686;5.138;2024-01-30T09:59:57;102709.59;;;10.74;98.30
77062;BME280;65989;51.686;5.138;2024-01-30T10:02:23;102708.56;;;10.75;98.37
77062;BME280;65989;51.686;5.138;2024-01-30T10:04:49;102708.34;;;10.76;97.97
77062;BME280;65989;51.686;5.138;2024-01-30T10:07:16;102714.66;;;10.82;98.17
77062;BME280;65989;51.686;5.138;2024-01-30T10:09:41;102705.88;;;10.88;97.62
77062;BME280;65989;51.686;5.138;2024-01-30T10:12:07;102713.81;;;10.95;97.56
77062;BME280;65989;51.686;5.138;2024-01-30T10:14:34;102710.31;;;10.95;97.26
77062;BME280;65989;51.686;5.138;2024-01-30T10:17:00;102704.81;;;10.96;96.94
77062;BME280;65989;51.686;5.138;2024-01-30T10:19:26;102705.03;;;11.01;97.15
77062;BME280;65989;51.686;5.138;2024-01-30T10:21:52;102717.63;;;11.13;97.12
77062;BME280;65989;51.686;5.138;2024-01-30T10:24:17;102718.38;;;11.27;96.43
77062;BME280;65989;51.686;5.138;2024-01-30T10:26:46;102706.06;;;11.39;96.03
77062;BME280;65989;51.686;5.138;2024-01-30T10:29:12;102704.81;;;11.48;95.36
77062;BME280;65989;51.686;5.138;2024-01-30T10:31:37;102707.63;;;11.54;94.21
77062;BME280;65989;51.686;5.138;2024-01-30T10:34:02;102708.00;;;11.57;94.19
77062;BME280;65989;51.686;5.138;2024-01-30T10:36:29;102705.09;;;11.65;93.84
77062;BME280;65989;51.686;5.138;2024-01-30T10:38:59;102705.28;;;11.71;93.28
77062;BME280;65989;51.686;5.138;2024-01-30T10:41:31;102706.25;;;11.76;92.76
77062;BME280;65989;51.686;5.138;2024-01-30T10:44:09;102716.28;;;11.74;92.70
77062;BME280;65989;51.686;5.138;2024-01-30T10:46:35;102718.75;;;11.69;92.51
77062;BME280;65989;51.686;5.138;2024-01-30T10:49:03;102727.75;;;11.68;92.28
77062;BME280;65989;51.686;5.138;2024-01-30T10:51:30;102718.94;;;11.74;92.25
77062;BME280;65989;51.686;5.138;2024-01-30T10:53:56;102724.63;;;11.78;91.47
77062;BME280;65989;51.686;5.138;2024-01-30T10:56:22;102726.66;;;11.83;91.05
77062;BME280;65989;51.686;5.138;2024-01-30T10:58:50;102716.63;;;11.85;91.16
77062;BME280;65989;51.686;5.138;2024-01-30T11:01:16;102718.03;;;11.87;91.12
77062;BME280;65989;51.686;5.138;2024-01-30T11:03:42;102724.91;;;11.95;90.97
77062;BME280;65989;51.686;5.138;2024-01-30T11:06:11;102721.22;;;11.96;90.14
77062;BME280;65989;51.686;5.138;2024-01-30T11:08:37;102705.94;;;11.91;88.69
77062;BME280;65989;51.686;5.138;2024-01-30T11:11:08;102714.56;;;11.87;88.71
77062;BME280;65989;51.686;5.138;2024-01-30T11:13:34;102719.88;;;11.87;88.17
77062;BME280;65989;51.686;5.138;2024-01-30T11:16:06;102713.53;;;11.88;88.00
77062;BME280;65989;51.686;5.138;2024-01-30T11:18:33;102718.84;;;11.88;87.52
77062;BME280;65989;51.686;5.138;2024-01-30T11:20:59;102721.66;;;11.93;87.37
77062;BME280;65989;51.686;5.138;2024-01-30T11:23:27;102707.13;;;12.02;86.55
77062;BME280;65989;51.686;5.138;2024-01-30T11:25:54;102714.66;;;12.05;84.28
77062;BME280;65989;51.686;5.138;2024-01-30T11:28:21;102719.00;;;12.00;83.83
77062;BME280;65989;51.686;5.138;2024-01-30T11:30:47;102726.97;;;12.00;83.30
77062;BME280;65989;51.686;5.138;2024-01-30T11:33:27;102734.22;;;12.11;83.61
77062;BME280;65989;51.686;5.138;2024-01-30T11:35:53;102724.75;;;12.22;83.33
77062;BME280;65989;51.686;5.138;2024-01-30T11:38:19;102735.75;;;12.25;80.35
77062;BME280;65989;51.686;5.138;2024-01-30T11:40:45;102740.72;;;12.22;79.48
77062;BME280;65989;51.686;5.138;2024-01-30T11:43:10;102739.34;;;12.13;77.83
77062;BME280;65989;51.686;5.138;2024-01-30T11:45:37;102744.31;;;12.02;78.02
77062;BME280;65989;51.686;5.138;2024-01-30T11:48:03;102747.59;;;11.98;77.54
77062;BME280;65989;51.686;5.138;2024-01-30T11:50:33;102753.34;;;11.94;78.80
77062;BME280;65989;51.686;5.138;2024-01-30T11:52:59;102745.78;;;11.91;78.03
77062;BME280;65989;51.686;5.138;2024-01-30T11:55:25;102739.28;;;11.87;76.31
77062;BME280;65989;51.686;5.138;2024-01-30T11:57:50;102737.88;;;11.85;76.37
77062;BME280;65989;51.686;5.138;2024-01-30T12:00:17;102736.19;;;11.90;76.21
77062;BME280;65989;51.686;5.138;2024-01-30T12:02:44;102746.75;;;11.97;75.81
77062;BME280;65989;51.686;5.138;2024-01-30T12:05:09;102747.81;;;12.03;76.26
77062;BME280;65989;51.686;5.138;2024-01-30T12:07:35;102763.31;;;12.06;76.47
77062;BME280;65989;51.686;5.138;2024-01-30T12:10:01;102758.84;;;12.00;77.81
77062;BME280;65989;51.686;5.138;2024-01-30T12:12:28;102756.38;;;11.98;77.89
77062;BME280;65989;51.686;5.138;2024-01-30T12:14:55;102762.91;;;12.02;78.14
77062;BME280;65989;51.686;5.138;2024-01-30T12:17:27;102754.94;;;12.02;78.06
77062;BME280;65989;51.686;5.138;2024-01-30T12:20:23;102768.84;;;11.98;77.98
77062;BME280;65989;51.686;5.138;2024-01-30T12:22:49;102770.31;;;11.93;78.06
77062;BME280;65989;51.686;5.138;2024-01-30T12:25:16;102775.38;;;11.95;77.43
77062;BME280;65989;51.686;5.138;2024-01-30T12:27:43;102782.19;;;11.91;74.88
77062;BME280;65989;51.686;5.138;2024-01-30T12:30:10;102775.63;;;11.93;74.18
77062;BME280;65989;51.686;5.138;2024-01-30T12:32:37;102782.56;;;11.94;73.84
77062;BME280;65989;51.686;5.138;2024-01-30T12:35:07;102792.97;;;11.96;72.99
77062;BME280;65989;51.686;5.138;2024-01-30T12:37:32;102790.91;;;11.98;73.18
77062;BME280;65989;51.686;5.138;2024-01-30T12:39:58;102789.28;;;11.97;73.05
77062;BME280;65989;51.686;5.138;2024-01-30T12:42:26;102795.41;;;11.98;72.37
77062;BME280;65989;51.686;5.138;2024-01-30T12:44:52;102803.81;;;11.94;72.16